createdAt,value
2022-08-12T00:01:12.941Z,3.42
2022-08-12T00:03:58.089Z,3.50
2022-08-12T00:06:44.585Z,4.10
2022-08-12T00:09:30.433Z,3.88
2022-08-12T00:12:18.116Z,3.83
2022-08-12T00:15:16.600Z,4.13
2022-08-12T00:18:04.866Z,3.55
2022-08-12T00:23:00.188Z,3.50
2022-08-12T00:26:21.254Z,3.30
2022-08-12T00:29:05.743Z,3.72
2022-08-12T00:31:51.262Z,3.80
2022-08-12T00:34:36.532Z,3.33
2022-08-12T00:37:22.870Z,3.90
2022-08-12T00:40:12.041Z,3.40
2022-08-12T00:42:42.856Z,3.80
2022-08-12T00:45:10.744Z,3.85
2022-08-12T00:47:40.777Z,3.58
2022-08-12T00:50:10.006Z,3.47
2022-08-12T00:52:36.937Z,3.75
2022-08-12T00:55:05.718Z,3.70
2022-08-12T00:57:37.837Z,4.55
2022-08-12T01:00:12.929Z,3.65
2022-08-12T01:02:44.770Z,3.65
2022-08-12T01:05:38.744Z,4.05
2022-08-12T01:08:27.035Z,3.55
2022-08-12T01:11:17.300Z,3.70
2022-08-12T01:13:48.320Z,4.30
2022-08-12T01:16:23.230Z,3.70
2022-08-12T01:18:53.244Z,3.63
2022-08-12T01:21:45.260Z,3.65
2022-08-12T01:24:36.869Z,3.58
2022-08-12T01:27:12.898Z,3.65
2022-08-12T01:29:44.039Z,3.80
2022-08-12T01:32:16.230Z,4.00
2022-08-12T01:34:55.042Z,3.25
2022-08-12T01:37:25.507Z,3.50
2022-08-12T01:40:33.784Z,3.78
2022-08-12T01:42:50.533Z,4.13
2022-08-12T01:45:23.088Z,3.80
2022-08-12T01:48:18.462Z,3.80
2022-08-12T01:51:05.417Z,4.00
2022-08-12T01:53:57.690Z,4.07
2022-08-12T01:56:31.486Z,3.17
2022-08-12T01:59:22.240Z,3.45
2022-08-12T02:01:54.254Z,3.60
2022-08-12T02:04:39.837Z,2.95
2022-08-12T02:07:33.301Z,3.05
2022-08-12T02:10:50.642Z,3.20
2022-08-12T02:13:43.819Z,2.92
2022-08-12T02:16:36.522Z,3.78
2022-08-12T02:19:22.806Z,3.13
2022-08-12T02:23:54.713Z,4.22
2022-08-12T02:26:24.581Z,4.07
2022-08-12T02:28:52.355Z,4.30
2022-08-12T02:31:20.100Z,4.70
2022-08-12T02:33:47.741Z,4.65
2022-08-12T02:36:16.819Z,4.43
2022-08-12T02:38:43.752Z,4.20
2022-08-12T02:41:12.324Z,4.20
2022-08-12T02:43:38.917Z,3.88
2022-08-12T02:46:14.426Z,4.15
2022-08-12T02:49:14.122Z,4.25
2022-08-12T02:51:44.356Z,3.42
2022-08-12T02:54:12.020Z,3.58
2022-08-12T02:56:50.514Z,3.70
2022-08-12T02:59:21.737Z,3.72
2022-08-12T03:01:56.710Z,3.20
2022-08-12T03:04:41.440Z,3.55
2022-08-12T03:07:35.780Z,3.45
2022-08-12T03:10:36.803Z,3.72
2022-08-12T03:13:07.341Z,3.25
2022-08-12T03:15:36.066Z,3.47
2022-08-12T03:18:26.229Z,3.92
2022-08-12T03:20:56.225Z,3.03
2022-08-12T03:23:29.200Z,3.60
2022-08-12T03:26:00.887Z,2.90
2022-08-12T03:28:51.782Z,3.60
2022-08-12T03:31:30.642Z,3.28
2022-08-12T03:34:02.310Z,3.80
2022-08-12T03:36:32.381Z,4.22
2022-08-12T03:39:35.442Z,4.07
2022-08-12T03:42:36.396Z,3.50
2022-08-12T03:45:42.026Z,3.70
2022-08-12T03:48:37.183Z,4.00
2022-08-12T03:51:22.666Z,3.50
2022-08-12T03:54:11.086Z,3.17
2022-08-12T03:56:57.316Z,4.05
2022-08-12T03:59:42.937Z,3.83
2022-08-12T04:02:14.734Z,3.70
2022-08-12T04:04:45.669Z,3.97
2022-08-12T04:07:13.665Z,4.35
2022-08-12T04:09:42.627Z,4.65
2022-08-12T04:12:32.417Z,4.78
2022-08-12T04:15:00.931Z,4.57
2022-08-12T04:17:28.414Z,4.18
2022-08-12T04:19:56.597Z,4.10
2022-08-12T05:25:13.549Z,4.28
2022-08-12T05:27:58.774Z,3.35
2022-08-12T05:30:31.059Z,3.75
2022-08-12T05:32:59.999Z,3.70
2022-08-12T05:35:27.851Z,3.53
2022-08-12T05:38:35.236Z,3.25
2022-08-12T05:41:04.926Z,2.97
2022-08-12T05:43:34.714Z,3.55
2022-08-12T05:46:07.395Z,3.67
2022-08-12T05:48:46.743Z,3.42
2022-08-12T05:51:16.677Z,3.20
2022-08-12T05:54:03.964Z,3.70
2022-08-12T05:56:33.541Z,3.58
2022-08-12T05:59:03.109Z,3.70
2022-08-12T06:02:09.493Z,3.38
2022-08-12T06:04:18.438Z,3.03
2022-08-12T06:06:51.383Z,3.20
2022-08-12T06:09:17.983Z,3.67
2022-08-12T06:12:05.002Z,2.67
2022-08-12T06:14:37.185Z,3.30
2022-08-12T06:17:08.006Z,2.60
2022-08-12T06:20:25.793Z,2.80
2022-08-12T06:25:34.586Z,2.90
2022-08-12T06:28:07.889Z,2.83
2022-08-12T06:30:39.130Z,3.10
2022-08-12T06:33:22.549Z,3.20
2022-08-12T06:35:55.747Z,2.80
2022-08-12T06:38:27.343Z,3.10
2022-08-12T06:41:18.103Z,3.42
2022-08-12T06:44:05.671Z,4.38
2022-08-12T06:46:32.811Z,3.17
2022-08-12T06:48:59.797Z,3.33
2022-08-12T06:51:30.004Z,2.80
2022-08-12T06:53:58.221Z,3.22
2022-08-12T06:56:39.799Z,2.70
2022-08-12T06:59:06.859Z,3.30
2022-08-12T07:01:33.571Z,2.90
2022-08-12T07:04:14.278Z,3.20
2022-08-12T07:06:47.000Z,3.00
2022-08-12T07:09:55.659Z,2.97
2022-08-12T07:12:01.766Z,2.90
2022-08-12T07:14:28.344Z,3.15
2022-08-12T07:16:56.781Z,2.95
2022-08-12T07:19:23.496Z,3.25
2022-08-12T07:22:01.979Z,2.80
2022-08-12T07:24:29.137Z,3.10
2022-08-12T07:26:55.903Z,2.90
2022-08-12T07:29:23.075Z,2.50
2022-08-12T07:31:49.792Z,3.03
2022-08-12T07:34:17.219Z,2.90
2022-08-12T07:36:45.743Z,2.97
2022-08-12T07:39:13.517Z,2.85
2022-08-12T07:41:40.167Z,2.80
2022-08-12T07:44:08.907Z,2.88
2022-08-12T07:46:41.572Z,3.20
2022-08-12T07:49:11.188Z,2.65
2022-08-12T07:51:38.504Z,3.10
2022-08-12T07:54:09.439Z,2.75
2022-08-12T07:56:38.479Z,2.67
2022-08-12T07:59:06.554Z,2.53
2022-08-12T08:01:33.277Z,2.58
2022-08-12T08:04:19.495Z,2.60
2022-08-12T08:06:49.619Z,3.03
2022-08-12T08:09:18.251Z,3.05
2022-08-12T08:12:03.391Z,2.80
2022-08-12T08:14:30.506Z,2.20
2022-08-12T08:16:59.594Z,2.10
2022-08-12T08:19:29.173Z,2.35
2022-08-12T08:21:57.547Z,2.22
2022-08-12T08:26:34.245Z,2.88
2022-08-12T08:29:00.936Z,2.35
2022-08-12T08:31:27.930Z,2.58
2022-08-12T08:34:05.157Z,3.08
2022-08-12T08:36:37.564Z,2.90
2022-08-12T08:39:04.747Z,2.63
2022-08-12T08:42:16.571Z,2.58
2022-08-12T08:44:38.321Z,3.42
2022-08-12T08:47:10.150Z,2.70
2022-08-12T08:49:37.707Z,2.88
2022-08-12T08:52:06.589Z,2.70
2022-08-12T08:54:33.681Z,3.40
2022-08-12T08:57:01.507Z,3.08
2022-08-12T08:59:28.943Z,2.97
2022-08-12T09:01:56.253Z,2.80
2022-08-12T09:05:12.608Z,3.22
2022-08-12T09:10:01.921Z,3.10
2022-08-12T09:12:54.577Z,3.40
2022-08-12T09:15:22.317Z,2.95
2022-08-12T09:18:08.487Z,3.05
2022-08-12T09:20:37.366Z,3.58
2022-08-12T09:23:57.083Z,2.58
2022-08-12T09:25:58.344Z,3.30
2022-08-12T09:28:33.039Z,3.25
2022-08-12T09:31:00.459Z,3.42
2022-08-12T09:34:25.784Z,3.28
2022-08-12T09:36:30.671Z,3.22
2022-08-12T09:38:58.874Z,2.72
2022-08-12T09:42:09.513Z,3.10
2022-08-12T09:44:39.422Z,2.88
2022-08-12T09:47:10.644Z,3.38
2022-08-12T09:49:42.278Z,3.03
2022-08-12T09:52:09.407Z,3.20
2022-08-12T09:54:36.448Z,3.03
2022-08-12T09:58:45.291Z,3.47
2022-08-12T10:00:15.231Z,2.92
2022-08-12T10:03:31.201Z,3.42
2022-08-12T10:06:26.394Z,3.80
2022-08-12T10:08:52.465Z,3.50
2022-08-12T10:12:09.798Z,3.45
2022-08-12T10:14:34.266Z,3.45
2022-08-12T10:17:08.570Z,3.38
2022-08-12T10:19:37.864Z,3.40
2022-08-12T10:22:16.481Z,3.10
2022-08-12T10:38:34.422Z,3.65
2022-08-12T10:41:07.598Z,3.13
2022-08-12T10:43:54.042Z,3.40
2022-08-12T10:46:30.922Z,4.00
2022-08-12T10:49:07.073Z,3.85
2022-08-12T10:52:04.708Z,4.38
2022-08-12T10:54:36.175Z,3.28
2022-08-12T10:57:03.091Z,3.60
2022-08-12T10:59:58.203Z,3.75
2022-08-12T11:04:28.595Z,3.78
2022-08-12T11:07:08.560Z,3.67
2022-08-12T11:08:38.602Z,3.65
2022-08-12T11:10:41.940Z,3.80
2022-08-12T11:13:13.079Z,3.90
2022-08-12T11:16:03.386Z,3.90
2022-08-12T11:18:26.514Z,3.90
2022-08-12T11:20:58.000Z,3.45
2022-08-12T11:23:36.661Z,3.58
2022-08-12T11:26:06.678Z,3.65
2022-08-12T11:28:37.227Z,3.72
2022-08-12T11:31:07.189Z,3.88
2022-08-12T11:34:04.767Z,3.60
2022-08-12T11:36:25.244Z,3.13
2022-08-12T11:38:53.264Z,3.40
2022-08-12T11:41:31.131Z,3.22
2022-08-12T11:43:59.298Z,3.13
2022-08-12T11:46:26.184Z,3.20
2022-08-12T11:48:52.927Z,2.75
2022-08-12T11:51:21.108Z,2.92
2022-08-12T11:53:57.497Z,3.75
2022-08-12T11:56:38.311Z,3.28
2022-08-12T12:02:03.412Z,3.45
2022-08-12T12:04:32.168Z,3.20
2022-08-12T12:07:06.786Z,3.28
2022-08-12T12:09:52.778Z,3.60
2022-08-12T12:12:22.522Z,3.53
2022-08-12T12:14:55.002Z,3.38
2022-08-12T12:19:53.354Z,3.28
2022-08-12T12:22:23.613Z,3.20
2022-08-12T12:24:57.364Z,3.45
2022-08-12T12:28:39.712Z,3.05
2022-08-12T12:31:15.228Z,3.33
2022-08-12T12:33:57.970Z,3.42
2022-08-12T12:36:30.024Z,5.30
2022-08-12T12:38:58.330Z,4.82
2022-08-12T12:42:41.490Z,3.85
2022-08-12T12:44:25.920Z,2.85
2022-08-12T12:47:00.823Z,3.70
2022-08-12T12:49:27.798Z,3.58
2022-08-12T12:52:18.122Z,3.47
2022-08-12T12:54:52.681Z,3.35
2022-08-12T12:57:21.577Z,3.17
2022-08-12T13:00:17.853Z,3.42
2022-08-12T13:02:54.132Z,2.78
2022-08-12T13:05:28.978Z,3.15
2022-08-12T13:08:01.194Z,4.22
2022-08-12T13:10:30.707Z,3.03
2022-08-12T13:12:59.199Z,3.00
2022-08-12T13:15:49.516Z,3.70
2022-08-12T13:18:18.414Z,3.28
2022-08-12T13:20:47.056Z,3.42
2022-08-12T13:23:36.910Z,3.70
2022-08-12T13:26:04.186Z,3.50
2022-08-12T13:28:32.327Z,3.67
2022-08-12T13:31:00.118Z,3.95
2022-08-12T13:33:28.511Z,4.25
2022-08-12T13:36:18.833Z,3.40
2022-08-12T13:38:52.177Z,3.35
2022-08-12T13:41:33.113Z,3.33
2022-08-12T13:44:01.412Z,3.78
2022-08-12T13:46:28.453Z,3.28
2022-08-12T13:48:56.714Z,3.45
2022-08-12T13:51:40.999Z,3.05
2022-08-12T13:54:13.870Z,3.13
2022-08-12T13:56:41.022Z,3.78
2022-08-12T13:59:08.786Z,3.17
2022-08-12T14:01:40.306Z,4.00
2022-08-12T14:04:11.602Z,3.38
2022-08-12T14:06:39.401Z,4.07
2022-08-12T14:09:15.363Z,4.00
2022-08-12T14:11:48.308Z,3.47
2022-08-12T14:14:31.776Z,3.53
2022-08-12T14:17:09.813Z,3.75
2022-08-12T14:19:48.746Z,4.10
2022-08-12T14:22:20.422Z,4.18
2022-08-12T14:24:47.070Z,4.10
2022-08-12T14:29:56.268Z,4.38
2022-08-12T14:32:22.319Z,4.03
2022-08-12T14:34:51.559Z,4.35
2022-08-12T14:37:58.197Z,4.40
2022-08-12T14:40:06.873Z,5.03
2022-08-12T14:42:33.462Z,4.68
2022-08-12T14:45:02.297Z,4.20
2022-08-12T14:47:35.233Z,4.50
2022-08-12T14:50:41.444Z,5.07
2022-08-12T14:58:32.102Z,5.43
2022-08-12T15:01:21.321Z,5.32
2022-08-12T15:03:53.850Z,6.22
2022-08-12T15:06:39.223Z,5.30
2022-08-12T15:09:13.611Z,5.88
2022-08-12T15:11:55.621Z,5.70
2022-08-12T15:14:30.378Z,5.22
2022-08-12T15:17:00.251Z,5.22
2022-08-12T15:20:33.219Z,4.90
2022-08-12T15:22:37.234Z,5.15
2022-08-12T15:25:07.421Z,4.50
2022-08-12T15:28:04.156Z,7.00
2022-08-12T15:30:30.482Z,5.07
2022-08-12T15:32:57.372Z,5.10
2022-08-12T15:35:27.479Z,5.30
2022-08-12T15:38:13.787Z,5.07
2022-08-12T15:40:46.732Z,5.13
2022-08-12T15:43:51.356Z,4.88
2022-08-12T15:46:04.772Z,4.78
2022-08-12T15:48:34.340Z,5.40
2022-08-12T15:51:02.982Z,5.00
2022-08-12T15:53:53.437Z,4.82
2022-08-12T15:56:29.294Z,5.32
2022-08-12T15:58:59.076Z,5.18
2022-08-12T16:01:35.469Z,5.40
2022-08-12T16:04:05.374Z,5.05
2022-08-12T16:09:55.822Z,5.57
2022-08-12T16:12:11.258Z,5.85
2022-08-12T16:14:39.178Z,5.68
2022-08-12T16:17:08.708Z,6.43
2022-08-12T16:20:02.719Z,6.15
2022-08-12T16:22:26.488Z,6.40
2022-08-12T16:24:54.137Z,6.70
2022-08-12T16:40:57.070Z,5.82
2022-08-12T16:43:26.828Z,6.88
2022-08-12T16:46:05.287Z,5.47
2022-08-12T16:48:44.531Z,5.95
2022-08-12T16:51:13.495Z,5.28
2022-08-12T16:53:44.700Z,4.72
2022-08-12T16:56:15.518Z,5.32
2022-08-12T16:58:43.413Z,4.60
2022-08-12T17:01:14.713Z,9.07
2022-08-12T17:03:47.008Z,14.05
2022-08-12T17:06:22.219Z,5.68
2022-08-12T17:08:55.549Z,5.22
2022-08-12T17:11:22.884Z,5.45
2022-08-12T17:13:53.513Z,5.20
2022-08-12T17:16:21.322Z,5.30
2022-08-12T17:18:57.717Z,5.03
2022-08-12T17:21:40.534Z,5.38
2022-08-12T17:24:21.626Z,4.72
2022-08-12T17:26:50.220Z,5.95
2022-08-12T17:29:32.321Z,6.18
2022-08-12T17:32:08.878Z,4.72
2022-08-12T17:34:54.753Z,4.78
2022-08-12T17:37:21.682Z,4.68
2022-08-12T17:40:15.484Z,5.00
2022-08-12T17:42:35.776Z,4.30
2022-08-12T17:45:18.194Z,4.30
2022-08-12T17:48:02.320Z,4.55
2022-08-12T17:50:44.680Z,6.40
2022-08-12T17:53:15.237Z,7.55
2022-08-12T17:55:48.159Z,7.38
2022-08-12T17:58:21.635Z,6.25
2022-08-12T18:01:03.291Z,6.00
2022-08-12T18:03:57.527Z,5.97
2022-08-12T18:06:18.248Z,5.85
2022-08-12T18:08:54.604Z,7.30
2022-08-12T18:12:05.548Z,6.68
2022-08-12T18:14:28.996Z,8.20
2022-08-12T18:17:00.700Z,6.97
2022-08-12T18:19:48.535Z,8.82
2022-08-12T18:22:21.936Z,8.98
2022-08-12T18:25:04.784Z,9.15
2022-08-12T18:27:44.729Z,7.93
2022-08-12T18:31:44.244Z,8.10
2022-08-12T18:34:24.503Z,8.07
2022-08-12T18:36:55.629Z,7.40
2022-08-12T18:39:22.759Z,7.75
2022-08-12T18:41:51.669Z,7.85
2022-08-12T18:44:19.382Z,7.78
2022-08-12T18:46:54.508Z,8.63
2022-08-12T18:49:31.840Z,8.57
2022-08-12T18:52:04.385Z,8.25
2022-08-12T18:54:35.486Z,8.93
2022-08-12T18:57:19.591Z,8.63
2022-08-12T18:59:59.676Z,8.00
2022-08-12T19:02:32.255Z,9.52
2022-08-12T19:04:59.207Z,10.35
2022-08-12T19:07:29.841Z,8.82
2022-08-12T19:10:13.658Z,9.30
2022-08-12T19:13:00.536Z,10.07
2022-08-12T19:15:30.031Z,11.30
2022-08-12T19:18:01.036Z,10.63
2022-08-12T19:20:30.690Z,10.15
2022-08-12T19:23:02.478Z,9.40
2022-08-12T19:26:00.448Z,9.82
2022-08-12T19:28:30.261Z,9.88
2022-08-12T19:31:56.386Z,11.65
2022-08-12T19:35:18.521Z,11.23
2022-08-12T19:37:17.314Z,9.70
2022-08-12T19:40:08.669Z,9.50
2022-08-12T19:42:32.598Z,9.95
2022-08-12T19:45:05.136Z,10.18
2022-08-12T19:47:39.015Z,9.23
2022-08-12T19:50:06.809Z,9.70
2022-08-12T19:52:40.758Z,10.13
2022-08-12T19:55:11.491Z,11.27
2022-08-12T19:58:01.683Z,11.18
2022-08-12T20:00:29.461Z,10.73
2022-08-12T20:02:59.555Z,11.98
2022-08-12T20:06:06.100Z,11.55
2022-08-12T20:08:15.265Z,10.13
2022-08-12T20:12:13.146Z,11.63
2022-08-12T20:13:49.464Z,11.57
2022-08-12T20:16:50.762Z,11.50
2022-08-12T20:19:16.012Z,10.30
2022-08-12T20:21:43.631Z,11.68
2022-08-12T20:24:14.181Z,9.85
2022-08-12T20:26:42.580Z,10.18
2022-08-12T20:32:37.422Z,9.25
2022-08-12T20:35:18.340Z,10.52
2022-08-12T20:38:07.046Z,9.27
2022-08-12T20:40:33.894Z,9.63
2022-08-12T20:43:06.483Z,9.25
2022-08-12T20:45:44.769Z,9.70
2022-08-12T20:48:18.018Z,9.15
2022-08-12T20:50:47.642Z,12.15
2022-08-12T20:53:33.156Z,10.65
2022-08-12T20:56:30.877Z,11.35
2022-08-12T20:59:00.108Z,11.35
2022-08-12T21:01:36.709Z,10.98
2022-08-12T21:04:32.548Z,11.98
2022-08-12T21:07:08.457Z,11.13
2022-08-12T21:09:42.476Z,10.30
2022-08-12T21:12:28.135Z,10.40
2022-08-12T21:15:17.473Z,9.93
2022-08-12T21:18:11.679Z,11.45
2022-08-12T21:20:54.842Z,10.52
2022-08-12T21:23:22.596Z,11.45
2022-08-12T21:25:51.269Z,10.27
2022-08-12T21:28:20.930Z,10.85
2022-08-12T21:31:11.169Z,11.52
2022-08-12T21:33:58.515Z,10.90
2022-08-12T21:36:34.597Z,11.02
2022-08-12T21:39:20.663Z,10.32
2022-08-12T21:41:52.949Z,10.27
2022-08-12T21:45:44.128Z,10.57
2022-08-12T21:47:20.930Z,10.48
2022-08-12T21:49:55.322Z,10.60
2022-08-12T21:52:34.450Z,10.35
2022-08-12T21:55:08.469Z,9.43
2022-08-12T21:57:53.643Z,9.80
2022-08-12T22:00:33.425Z,9.35
2022-08-12T22:04:01.599Z,9.75
2022-08-12T22:06:20.289Z,8.77
2022-08-12T22:08:57.901Z,9.30
2022-08-12T22:11:42.498Z,10.90
2022-08-12T22:14:17.875Z,9.25
2022-08-12T22:16:50.597Z,10.50
2022-08-12T22:19:19.583Z,9.80
2022-08-12T22:21:52.329Z,8.85
2022-08-12T22:24:27.033Z,8.82
2022-08-12T22:27:08.110Z,9.32
2022-08-12T22:33:54.231Z,8.98
2022-08-12T22:36:28.464Z,9.25
2022-08-12T22:39:02.025Z,9.10
2022-08-12T22:42:05.842Z,9.87
2022-08-12T22:45:00.580Z,10.77
2022-08-12T22:47:53.189Z,11.05
2022-08-12T22:50:27.511Z,11.32
2022-08-12T22:53:15.067Z,11.07
2022-08-12T22:55:59.733Z,11.52
2022-08-12T22:58:40.456Z,11.57
2022-08-12T23:01:13.771Z,11.00
2022-08-12T23:03:54.318Z,10.90
2022-08-12T23:06:25.944Z,11.10
2022-08-12T23:08:55.272Z,11.20
2022-08-12T23:11:25.376Z,11.65
2022-08-12T23:14:11.325Z,11.55
2022-08-12T23:16:40.882Z,10.63
2022-08-12T23:19:17.651Z,9.77
2022-08-12T23:22:36.707Z,10.13
2022-08-12T23:25:21.270Z,9.75
2022-08-12T23:31:04.735Z,10.07
2022-08-12T23:34:00.889Z,9.95
2022-08-12T23:36:39.142Z,10.48
2022-08-12T23:40:15.377Z,10.40
2022-08-12T23:42:17.581Z,9.70
2022-08-12T23:44:52.400Z,9.15
2022-08-12T23:48:29.653Z,9.02
2022-08-12T23:51:22.771Z,9.43
2022-08-12T23:54:00.044Z,8.93
2022-08-12T23:56:49.962Z,8.90
2022-08-12T23:59:17.688Z,9.63
